createdAt,value
2019-05-26T00:01:14.631Z,158.97
2019-05-26T00:03:41.822Z,157.25
2019-05-26T00:06:08.864Z,159.40
2019-05-26T00:08:36.190Z,158.97
2019-05-26T00:11:03.379Z,157.75
2019-05-26T00:13:30.516Z,159.05
2019-05-26T00:15:57.942Z,158.30
2019-05-26T00:18:26.062Z,158.12
2019-05-26T00:20:53.238Z,157.75
2019-05-26T00:23:20.324Z,158.42
2019-05-26T00:25:47.823Z,157.57
2019-05-26T00:28:16.391Z,157.55
2019-05-26T00:30:45.251Z,159.43
2019-05-26T00:33:12.403Z,158.32
2019-05-26T00:35:39.547Z,156.82
2019-05-26T00:38:06.841Z,159.07
2019-05-26T00:40:34.073Z,159.60
2019-05-26T00:43:01.104Z,161.10
2019-05-26T00:45:28.183Z,159.18
2019-05-26T00:47:55.713Z,157.32
2019-05-26T00:50:22.779Z,157.37
2019-05-26T00:52:49.830Z,157.60
2019-05-26T00:55:17.239Z,158.35
2019-05-26T00:57:44.523Z,159.57
2019-05-26T01:00:12.279Z,158.52
2019-05-26T01:02:39.867Z,160.67
2019-05-26T01:05:08.761Z,158.78
2019-05-26T01:07:36.266Z,157.90
2019-05-26T01:10:04.492Z,156.67
2019-05-26T01:12:31.550Z,157.00
2019-05-26T01:14:58.597Z,157.50
2019-05-26T01:17:25.744Z,157.07
2019-05-26T01:19:54.614Z,157.78
2019-05-26T01:22:21.747Z,157.10
2019-05-26T01:24:48.793Z,157.32
2019-05-26T01:27:15.847Z,156.05
2019-05-26T01:29:43.032Z,156.10
2019-05-26T01:32:10.135Z,157.03
2019-05-26T01:34:37.305Z,156.40
2019-05-26T01:37:05.367Z,157.70
2019-05-26T01:39:32.609Z,156.82
2019-05-26T01:41:59.967Z,156.15
2019-05-26T01:44:27.250Z,157.65
2019-05-26T01:46:54.291Z,157.12
2019-05-26T01:49:21.301Z,157.72
2019-05-26T01:51:48.373Z,157.60
2019-05-26T01:54:15.419Z,157.18
2019-05-26T01:56:42.483Z,156.90
2019-05-26T01:59:09.545Z,157.40
2019-05-26T02:01:36.817Z,156.35
2019-05-26T02:04:04.254Z,157.37
2019-05-26T02:06:31.381Z,157.97
2019-05-26T02:08:59.612Z,157.55
2019-05-26T02:11:28.460Z,155.90
2019-05-26T02:13:55.544Z,155.37
2019-05-26T02:16:22.702Z,156.60
2019-05-26T02:18:49.793Z,156.22
2019-05-26T02:21:16.868Z,157.37
2019-05-26T02:23:45.285Z,157.50
2019-05-26T02:26:12.323Z,156.40
2019-05-26T02:28:40.590Z,156.28
2019-05-26T02:31:07.946Z,154.82
2019-05-26T02:33:34.984Z,156.97
2019-05-26T02:36:02.053Z,155.85
2019-05-26T02:38:30.919Z,156.10
2019-05-26T02:40:57.952Z,155.48
2019-05-26T02:43:25.159Z,156.07
2019-05-26T02:45:52.407Z,156.18
2019-05-26T02:48:19.461Z,156.90
2019-05-26T02:50:48.396Z,154.75
2019-05-26T02:53:15.426Z,155.72
2019-05-26T02:55:42.510Z,155.65
2019-05-26T02:58:09.594Z,155.82
2019-05-26T03:00:41.441Z,155.10
2019-05-26T03:03:09.226Z,155.43
2019-05-26T03:05:37.125Z,157.37
2019-05-26T03:08:06.394Z,156.80
2019-05-26T03:10:34.146Z,159.18
2019-05-26T03:13:03.545Z,157.10
2019-05-26T03:15:34.176Z,157.32
2019-05-26T03:18:04.186Z,156.32
2019-05-26T03:20:36.460Z,158.07
2019-05-26T03:23:06.671Z,158.65
2019-05-26T03:25:34.973Z,153.70
2019-05-26T03:28:02.019Z,154.25
2019-05-26T03:30:29.071Z,155.43
2019-05-26T03:32:56.147Z,154.85
2019-05-26T03:35:23.176Z,155.35
2019-05-26T03:37:50.284Z,155.12
2019-05-26T03:40:17.290Z,155.07
2019-05-26T03:42:44.329Z,154.78
2019-05-26T03:45:22.564Z,156.12
2019-05-26T03:47:49.621Z,154.68
2019-05-26T03:50:16.869Z,155.63
2019-05-26T03:52:43.947Z,154.93
2019-05-26T03:55:11.164Z,155.35
2019-05-26T03:57:38.437Z,157.07
2019-05-26T04:00:06.101Z,157.03
2019-05-26T04:02:34.455Z,156.55
2019-05-26T04:05:01.526Z,157.60
2019-05-26T04:07:28.549Z,159.43
2019-05-26T04:10:04.662Z,158.55
2019-05-26T04:12:24.887Z,158.90
2019-05-26T04:14:52.004Z,158.40
2019-05-26T04:17:19.061Z,160.48
2019-05-26T04:19:46.093Z,159.05
2019-05-26T04:22:13.219Z,160.12
2019-05-26T04:24:41.366Z,159.78
2019-05-26T04:27:08.412Z,161.43
2019-05-26T04:29:35.475Z,161.37
2019-05-26T04:32:02.596Z,163.72
2019-05-26T04:34:29.616Z,163.80
2019-05-26T04:36:57.816Z,162.12
2019-05-26T04:39:24.831Z,163.05
2019-05-26T04:41:52.011Z,163.97
2019-05-26T04:44:19.477Z,161.32
2019-05-26T04:46:46.870Z,162.03
2019-05-26T04:49:13.912Z,162.12
2019-05-26T04:51:40.994Z,164.13
2019-05-26T04:54:08.012Z,164.32
2019-05-26T04:56:35.059Z,164.30
2019-05-26T04:59:02.129Z,165.25
2019-05-26T05:01:29.251Z,165.73
2019-05-26T05:03:56.306Z,164.82
2019-05-26T05:06:23.550Z,166.15
2019-05-26T05:09:03.968Z,167.25
2019-05-26T05:11:35.779Z,168.55
2019-05-26T05:14:07.615Z,171.07
2019-05-26T05:16:36.217Z,169.00
2019-05-26T05:19:03.256Z,168.68
2019-05-26T05:21:30.306Z,169.62
2019-05-26T05:23:57.390Z,170.82
2019-05-26T05:26:24.421Z,170.87
2019-05-26T05:28:51.456Z,167.30
2019-05-26T05:31:18.510Z,166.60
2019-05-26T05:33:46.706Z,166.40
2019-05-26T05:36:13.802Z,164.00
2019-05-26T05:38:40.843Z,165.45
2019-05-26T05:41:07.891Z,163.97
2019-05-26T05:43:34.960Z,166.40
2019-05-26T05:46:02.042Z,164.37
2019-05-26T05:48:29.095Z,165.50
2019-05-26T05:51:00.554Z,167.85
2019-05-26T05:53:34.233Z,166.45
2019-05-26T05:56:08.968Z,168.10
2019-05-26T05:58:41.131Z,169.17
2019-05-26T06:01:12.524Z,168.80
2019-05-26T06:04:14.058Z,168.43
2019-05-26T06:06:48.516Z,170.72
2019-05-26T06:09:30.084Z,170.57
2019-05-26T06:11:58.612Z,168.68
2019-05-26T06:14:25.661Z,169.87
2019-05-26T06:16:52.728Z,170.45
2019-05-26T06:19:23.679Z,169.60
2019-05-26T06:21:50.935Z,170.28
2019-05-26T06:24:18.592Z,173.00
2019-05-26T06:26:48.010Z,170.25
2019-05-26T06:29:15.108Z,169.60
2019-05-26T06:31:56.046Z,170.75
2019-05-26T06:34:23.513Z,170.95
2019-05-26T06:36:51.824Z,171.37
2019-05-26T06:39:20.738Z,172.65
2019-05-26T06:41:47.813Z,171.22
2019-05-26T06:44:16.043Z,171.62
2019-05-26T06:49:55.257Z,170.20
2019-05-26T06:52:22.904Z,169.57
2019-05-26T06:54:50.000Z,171.25
2019-05-26T06:57:18.729Z,174.85
2019-05-26T06:59:48.721Z,172.93
2019-05-26T07:02:22.455Z,171.93
2019-05-26T07:04:51.743Z,174.75
2019-05-26T07:07:20.892Z,179.60
2019-05-26T07:09:48.166Z,178.60
2019-05-26T07:12:16.869Z,179.87
2019-05-26T07:14:48.683Z,181.45
2019-05-26T07:17:15.833Z,178.15
2019-05-26T07:19:44.019Z,185.55
2019-05-26T07:22:14.577Z,178.95
2019-05-26T07:24:45.766Z,177.40
2019-05-26T07:27:13.174Z,173.97
2019-05-26T07:29:43.225Z,175.95
2019-05-26T07:32:10.377Z,174.42
2019-05-26T07:34:38.611Z,172.17
2019-05-26T07:37:05.782Z,173.22
2019-05-26T07:39:32.992Z,175.93
2019-05-26T07:42:09.822Z,175.50
2019-05-26T07:44:30.467Z,174.50
2019-05-26T07:46:57.584Z,172.75
2019-05-26T07:49:24.903Z,175.65
2019-05-26T07:51:53.929Z,173.00
2019-05-26T07:54:25.868Z,174.12
2019-05-26T07:56:53.498Z,176.12
2019-05-26T07:59:24.366Z,176.57
2019-05-26T08:01:51.546Z,173.45
2019-05-26T08:04:18.989Z,173.68
2019-05-26T08:06:47.425Z,175.22
2019-05-26T08:09:17.845Z,176.70
2019-05-26T08:11:46.451Z,178.78
2019-05-26T08:14:16.148Z,179.53
2019-05-26T08:16:43.618Z,178.02
2019-05-26T08:19:10.988Z,177.15
2019-05-26T08:21:38.592Z,172.78
2019-05-26T08:24:08.185Z,174.40
2019-05-26T08:26:35.352Z,176.93
2019-05-26T08:29:06.581Z,176.22
2019-05-26T08:31:55.860Z,179.23
2019-05-26T08:34:24.570Z,183.07
2019-05-26T08:36:54.576Z,177.90
2019-05-26T08:39:22.135Z,181.35
2019-05-26T08:41:51.721Z,185.73
2019-05-26T08:44:18.795Z,186.77
2019-05-26T08:46:56.916Z,177.60
2019-05-26T08:49:39.560Z,183.75
2019-05-26T08:52:27.479Z,178.35
2019-05-26T08:54:55.768Z,176.75
2019-05-26T08:57:23.332Z,182.32
2019-05-26T08:59:52.122Z,177.97
2019-05-26T09:02:27.373Z,175.00
2019-05-26T09:04:59.110Z,175.93
2019-05-26T09:07:26.974Z,175.78
2019-05-26T09:09:54.169Z,176.07
2019-05-26T09:12:25.823Z,176.72
2019-05-26T09:14:54.573Z,177.80
2019-05-26T09:17:21.801Z,182.57
2019-05-26T09:20:11.647Z,179.70
2019-05-26T09:22:39.159Z,182.50
2019-05-26T09:25:11.581Z,181.72
2019-05-26T09:27:38.685Z,177.93
2019-05-26T09:30:25.771Z,179.10
2019-05-26T09:32:52.824Z,175.35
2019-05-26T09:35:19.881Z,176.22
2019-05-26T09:37:48.207Z,178.23
2019-05-26T09:40:15.899Z,174.12
2019-05-26T09:42:46.481Z,175.30
2019-05-26T09:45:17.229Z,176.85
2019-05-26T09:47:50.350Z,173.13
2019-05-26T09:50:17.802Z,174.85
2019-05-26T09:52:47.403Z,175.25
2019-05-26T09:55:17.341Z,176.35
2019-05-26T09:57:44.667Z,173.02
2019-05-26T10:00:16.266Z,176.25
2019-05-26T10:03:26.515Z,175.72
2019-05-26T10:06:09.764Z,173.10
2019-05-26T10:08:37.322Z,170.92
2019-05-26T10:11:04.422Z,169.68
2019-05-26T10:13:32.249Z,170.87
2019-05-26T10:15:59.678Z,173.87
2019-05-26T10:18:26.736Z,171.98
2019-05-26T10:20:54.076Z,171.85
2019-05-26T10:23:25.068Z,173.35
2019-05-26T10:25:52.252Z,171.72
2019-05-26T10:28:19.307Z,170.28
2019-05-26T10:30:46.387Z,171.22
2019-05-26T10:33:13.834Z,169.45
2019-05-26T10:35:41.965Z,172.20
2019-05-26T10:38:10.258Z,169.55
2019-05-26T10:40:38.926Z,169.35
2019-05-26T10:43:07.435Z,170.28
2019-05-26T10:45:35.939Z,168.32
2019-05-26T10:48:03.243Z,170.47
2019-05-26T10:50:31.287Z,173.07
2019-05-26T10:53:02.427Z,175.03
2019-05-26T10:55:33.301Z,171.72
2019-05-26T10:58:25.969Z,182.17
2019-05-26T11:01:02.685Z,174.53
2019-05-26T11:03:50.361Z,178.90
2019-05-26T11:06:19.252Z,180.32
2019-05-26T11:08:47.909Z,174.95
2019-05-26T11:11:18.676Z,177.12
2019-05-26T11:13:45.795Z,174.97
2019-05-26T11:16:26.083Z,174.77
2019-05-26T11:18:53.213Z,170.85
2019-05-26T11:21:20.296Z,174.35
2019-05-26T11:23:48.032Z,175.30
2019-05-26T11:26:15.153Z,179.12
2019-05-26T11:28:44.802Z,172.32
2019-05-26T11:31:12.033Z,175.95
2019-05-26T11:33:39.313Z,172.72
2019-05-26T11:36:06.608Z,177.07
2019-05-26T11:38:35.864Z,173.68
2019-05-26T11:41:06.315Z,175.50
2019-05-26T11:43:37.134Z,173.05
2019-05-26T11:46:17.303Z,178.93
2019-05-26T11:48:47.425Z,176.18
2019-05-26T11:51:23.550Z,179.93
2019-05-26T11:53:59.480Z,175.22
2019-05-26T11:56:31.144Z,180.80
2019-05-26T11:59:04.075Z,178.47
2019-05-26T12:01:35.868Z,175.50
2019-05-26T12:04:06.891Z,174.47
2019-05-26T12:06:38.594Z,171.40
2019-05-26T12:09:07.607Z,170.90
2019-05-26T12:11:35.316Z,175.20
2019-05-26T12:14:02.708Z,171.18
2019-05-26T12:16:30.118Z,181.28
2019-05-26T12:19:02.782Z,175.65
2019-05-26T12:21:30.059Z,177.60
2019-05-26T12:23:57.243Z,170.25
2019-05-26T12:26:24.532Z,175.53
2019-05-26T12:28:51.727Z,170.05
2019-05-26T12:31:18.824Z,175.80
2019-05-26T12:33:46.162Z,173.17
2019-05-26T12:36:14.376Z,172.95
2019-05-26T12:38:50.499Z,174.60
2019-05-26T12:41:19.354Z,174.38
2019-05-26T12:43:46.532Z,172.87
2019-05-26T12:46:15.359Z,174.50
2019-05-26T12:48:42.994Z,172.50
2019-05-26T12:51:10.294Z,176.65
2019-05-26T12:53:37.359Z,175.78
2019-05-26T12:56:05.863Z,172.87
2019-05-26T12:58:32.963Z,175.18
2019-05-26T13:01:00.022Z,178.93
2019-05-26T13:03:27.902Z,177.65
2019-05-26T13:05:54.993Z,183.37
2019-05-26T13:08:22.121Z,180.52
2019-05-26T13:10:54.162Z,184.05
2019-05-26T13:13:21.721Z,183.70
2019-05-26T13:15:54.015Z,175.27
2019-05-26T13:18:21.688Z,179.20
2019-05-26T13:20:52.957Z,177.70
2019-05-26T13:23:22.293Z,180.40
2019-05-26T13:25:49.914Z,180.37
2019-05-26T13:31:54.651Z,175.85
2019-05-26T13:34:25.508Z,172.57
2019-05-26T13:36:58.242Z,173.53
2019-05-26T13:39:25.436Z,175.95
2019-05-26T13:42:16.704Z,172.55
2019-05-26T13:45:21.098Z,171.75
2019-05-26T13:47:37.204Z,175.35
2019-05-26T13:50:11.510Z,176.75
2019-05-26T13:52:40.526Z,175.20
2019-05-26T13:55:08.575Z,175.53
2019-05-26T13:57:39.661Z,175.20
2019-05-26T14:00:08.170Z,179.57
2019-05-26T14:02:38.594Z,178.45
2019-05-26T14:05:09.895Z,172.15
2019-05-26T14:07:37.566Z,179.20
2019-05-26T14:10:07.405Z,179.55
2019-05-26T14:12:34.492Z,179.05
2019-05-26T14:15:01.676Z,175.78
2019-05-26T14:17:34.778Z,177.38
2019-05-26T14:20:07.165Z,176.57
2019-05-26T14:22:35.298Z,182.35
2019-05-26T14:25:04.446Z,187.95
2019-05-26T14:27:31.568Z,184.25
2019-05-26T14:30:14.153Z,185.10
2019-05-26T14:32:49.650Z,182.00
2019-05-26T14:35:24.615Z,183.10
2019-05-26T14:37:55.282Z,187.97
2019-05-26T14:40:22.439Z,181.22
2019-05-26T14:42:54.453Z,175.65
2019-05-26T14:45:21.657Z,173.87
2019-05-26T14:48:05.035Z,178.80
2019-05-26T14:50:54.994Z,174.47
2019-05-26T14:53:23.745Z,181.50
2019-05-26T14:56:01.126Z,179.23
2019-05-26T14:58:30.097Z,182.00
2019-05-26T15:00:57.194Z,176.90
2019-05-26T15:03:24.286Z,175.93
2019-05-26T15:06:05.166Z,178.12
2019-05-26T15:08:22.182Z,172.47
2019-05-26T15:10:49.630Z,171.02
2019-05-26T15:13:16.898Z,172.68
2019-05-26T15:15:44.420Z,176.22
2019-05-26T15:18:12.588Z,171.72
2019-05-26T15:20:46.644Z,172.87
2019-05-26T15:23:15.102Z,175.65
2019-05-26T15:25:42.200Z,179.07
2019-05-26T15:28:12.617Z,173.85
2019-05-26T15:30:43.199Z,174.15
2019-05-26T15:33:12.325Z,177.02
2019-05-26T15:35:46.144Z,175.38
2019-05-26T15:38:19.457Z,181.50
2019-05-26T15:40:46.645Z,179.72
2019-05-26T15:43:15.938Z,176.00
2019-05-26T15:45:55.055Z,181.07
2019-05-26T15:48:27.661Z,179.25
2019-05-26T15:50:54.909Z,179.78
2019-05-26T15:53:22.200Z,179.93
2019-05-26T15:55:52.753Z,178.38
2019-05-26T15:58:22.173Z,185.43
2019-05-26T16:00:52.709Z,182.32
2019-05-26T16:03:21.866Z,175.70
2019-05-26T16:05:49.077Z,172.85
2019-05-26T16:08:21.202Z,177.72
2019-05-26T16:10:49.427Z,175.78
2019-05-26T16:13:20.442Z,178.72
2019-05-26T16:15:51.623Z,177.47
2019-05-26T16:18:25.131Z,177.45
2019-05-26T16:21:02.754Z,181.95
2019-05-26T16:23:27.775Z,182.12
2019-05-26T16:25:59.938Z,180.97
2019-05-26T16:28:29.206Z,183.62
2019-05-26T16:30:57.119Z,182.55
2019-05-26T16:33:29.343Z,179.50
2019-05-26T16:35:58.605Z,179.45
2019-05-26T16:38:28.787Z,172.93
2019-05-26T16:40:57.033Z,179.93
2019-05-26T16:43:28.435Z,180.82
2019-05-26T16:45:58.665Z,179.87
2019-05-26T16:48:30.929Z,181.95
2019-05-26T16:51:00.508Z,179.38
2019-05-26T16:53:32.805Z,179.63
2019-05-26T16:56:02.358Z,176.20
2019-05-26T16:58:32.658Z,177.30
2019-05-26T17:01:11.253Z,178.47
2019-05-26T17:03:43.028Z,177.50
2019-05-26T17:06:14.052Z,176.97
2019-05-26T17:08:43.144Z,176.65
2019-05-26T17:11:16.111Z,178.07
2019-05-26T17:13:43.158Z,175.53
2019-05-26T17:16:10.418Z,178.47
2019-05-26T17:18:38.730Z,178.57
2019-05-26T17:21:07.546Z,178.05
2019-05-26T17:23:34.690Z,180.97
2019-05-26T17:26:01.890Z,174.95
2019-05-26T17:28:29.011Z,179.00
2019-05-26T17:30:56.139Z,171.87
2019-05-26T17:33:23.247Z,178.40
2019-05-26T17:35:50.292Z,173.90
2019-05-26T17:38:17.567Z,178.15
2019-05-26T17:40:44.674Z,181.22
2019-05-26T17:43:12.847Z,175.38
2019-05-26T17:45:39.940Z,175.00
2019-05-26T17:48:07.477Z,176.05
2019-05-26T17:50:34.674Z,181.85
2019-05-26T17:53:01.739Z,176.55
2019-05-26T17:55:28.997Z,168.60
2019-05-26T17:57:56.736Z,171.05
2019-05-26T18:00:26.446Z,172.22
2019-05-26T18:02:55.043Z,170.90
2019-05-26T18:05:29.677Z,172.93
2019-05-26T18:08:02.537Z,169.00
2019-05-26T18:10:35.640Z,176.25
2019-05-26T18:13:03.496Z,168.02
2019-05-26T18:15:39.884Z,169.75
2019-05-26T18:18:07.046Z,170.70
2019-05-26T18:20:36.143Z,169.95
2019-05-26T18:23:03.398Z,169.50
2019-05-26T18:25:32.681Z,167.32
2019-05-26T18:28:01.006Z,168.22
2019-05-26T18:30:28.516Z,168.17
2019-05-26T18:32:55.618Z,167.37
2019-05-26T18:35:22.688Z,165.12
2019-05-26T18:37:52.564Z,166.10
2019-05-26T18:40:20.995Z,165.18
2019-05-26T18:42:48.046Z,168.52
2019-05-26T18:45:15.592Z,166.97
2019-05-26T18:47:42.815Z,165.97
2019-05-26T18:50:10.098Z,165.15
2019-05-26T18:52:37.416Z,167.32
2019-05-26T18:55:05.100Z,169.53
2019-05-26T18:57:32.221Z,165.82
2019-05-26T18:59:59.409Z,164.93
2019-05-26T19:02:44.905Z,164.28
2019-05-26T19:05:33.891Z,166.40
2019-05-26T19:08:00.258Z,162.80
2019-05-26T19:10:27.355Z,166.97
2019-05-26T19:12:54.431Z,166.75
2019-05-26T19:15:23.334Z,167.57
2019-05-26T19:17:50.393Z,167.75
2019-05-26T19:20:17.626Z,165.85
2019-05-26T19:22:44.738Z,165.37
2019-05-26T19:25:13.614Z,164.18
2019-05-26T19:27:40.787Z,164.05
2019-05-26T19:30:09.583Z,165.95
2019-05-26T19:32:36.778Z,164.55
2019-05-26T19:35:04.723Z,164.32
2019-05-26T19:37:32.741Z,165.20
2019-05-26T19:39:59.810Z,163.60
2019-05-26T19:42:27.439Z,162.07
2019-05-26T19:44:54.640Z,166.20
2019-05-26T19:47:23.748Z,162.32
2019-05-26T19:49:55.420Z,164.37
2019-05-26T19:52:22.542Z,164.77
2019-05-26T19:54:56.621Z,163.20
2019-05-26T19:57:26.451Z,162.50
2019-05-26T19:59:59.789Z,163.00
2019-05-26T20:02:35.060Z,162.60
2019-05-26T20:05:05.071Z,162.85
2019-05-26T20:07:36.691Z,164.05
2019-05-26T20:10:05.960Z,164.97
2019-05-26T20:12:33.251Z,162.50
2019-05-26T20:15:02.706Z,163.82
2019-05-26T20:17:31.130Z,164.95
2019-05-26T20:20:00.191Z,164.62
2019-05-26T20:22:28.673Z,160.88
2019-05-26T20:24:57.656Z,164.82
2019-05-26T20:27:27.204Z,160.50
2019-05-26T20:29:57.793Z,163.30
2019-05-26T20:32:27.585Z,160.70
2019-05-26T20:34:55.699Z,163.72
2019-05-26T20:37:25.845Z,164.77
2019-05-26T20:39:54.669Z,165.28
2019-05-26T20:42:23.895Z,162.75
2019-05-26T20:44:51.453Z,165.05
2019-05-26T20:47:18.995Z,163.30
2019-05-26T20:49:47.242Z,161.22
2019-05-26T20:52:14.476Z,161.75
2019-05-26T20:54:41.928Z,161.00
2019-05-26T20:57:09.038Z,161.10
2019-05-26T20:59:40.812Z,163.97
2019-05-26T21:02:07.872Z,163.22
2019-05-26T21:04:39.632Z,163.82
2019-05-26T21:07:09.490Z,162.35
2019-05-26T21:09:36.515Z,163.25
2019-05-26T21:12:03.749Z,163.22
2019-05-26T21:14:30.884Z,162.70
2019-05-26T21:16:58.015Z,162.95
2019-05-26T21:19:25.962Z,163.72
2019-05-26T21:21:55.325Z,161.88
2019-05-26T21:24:23.067Z,159.95
2019-05-26T21:26:50.259Z,159.60
2019-05-26T21:29:17.733Z,162.03
2019-05-26T21:31:44.959Z,160.65
2019-05-26T21:34:12.025Z,161.52
2019-05-26T21:36:39.060Z,162.18
2019-05-26T21:39:10.975Z,161.07
2019-05-26T21:41:40.503Z,161.50
2019-05-26T21:44:07.869Z,160.28
2019-05-26T21:46:35.081Z,160.72
2019-05-26T21:49:04.119Z,159.78
2019-05-26T21:51:33.229Z,162.70
2019-05-26T21:54:02.093Z,162.47
2019-05-26T21:56:30.491Z,161.82
2019-05-26T21:58:58.525Z,162.75
2019-05-26T22:01:26.018Z,160.30
2019-05-26T22:03:53.242Z,161.10
2019-05-26T22:06:29.109Z,160.85
2019-05-26T22:09:06.282Z,160.07
2019-05-26T22:11:33.358Z,162.88
2019-05-26T22:14:08.068Z,161.47
2019-05-26T22:16:35.691Z,161.85
2019-05-26T22:19:02.861Z,161.57
2019-05-26T22:21:31.459Z,160.43
2019-05-26T22:24:01.826Z,161.37
2019-05-26T22:26:28.887Z,160.78
2019-05-26T22:28:57.569Z,162.10
2019-05-26T22:31:26.345Z,162.53
2019-05-26T22:33:53.355Z,158.87
2019-05-26T22:36:21.634Z,160.95
2019-05-26T22:38:48.676Z,159.97
2019-05-26T22:41:15.783Z,159.00
2019-05-26T22:43:45.653Z,159.72
2019-05-26T22:46:15.880Z,159.05
2019-05-26T22:48:43.016Z,161.77
2019-05-26T22:51:10.124Z,159.45
2019-05-26T22:53:38.402Z,157.88
2019-05-26T22:56:05.503Z,159.78
2019-05-26T22:58:32.670Z,159.80
2019-05-26T23:00:59.720Z,161.77
2019-05-26T23:03:27.402Z,160.37
2019-05-26T23:05:54.480Z,159.95
2019-05-26T23:08:22.069Z,162.97
2019-05-26T23:10:49.192Z,163.10
2019-05-26T23:13:16.256Z,161.68
2019-05-26T23:15:43.306Z,162.32
2019-05-26T23:18:10.344Z,161.50
2019-05-26T23:20:37.399Z,161.07
2019-05-26T23:23:04.458Z,163.70
2019-05-26T23:25:31.497Z,161.30
2019-05-26T23:27:58.538Z,161.80
2019-05-26T23:30:25.643Z,160.60
2019-05-26T23:32:52.735Z,161.60
2019-05-26T23:35:19.835Z,160.48
2019-05-26T23:37:46.847Z,159.57
2019-05-26T23:40:14.527Z,160.30
2019-05-26T23:42:42.007Z,160.72
2019-05-26T23:45:09.349Z,159.97
2019-05-26T23:47:36.368Z,162.12
2019-05-26T23:50:04.617Z,160.72
2019-05-26T23:52:31.712Z,159.97
2019-05-26T23:54:58.777Z,160.50
2019-05-26T23:57:26.058Z,159.40
2019-05-26T23:59:53.328Z,159.65
